createdAt,value
2023-03-02T00:01:11.214Z,7.30
2023-03-02T00:04:22.183Z,7.90
2023-03-02T00:07:35.932Z,7.10
2023-03-02T00:10:49.295Z,7.15
2023-03-02T00:13:53.395Z,7.07
2023-03-02T00:17:02.832Z,7.38
2023-03-02T00:20:11.247Z,7.90
2023-03-02T00:23:17.541Z,7.13
2023-03-02T00:26:21.721Z,6.85
2023-03-02T00:29:25.429Z,7.50
2023-03-02T00:32:30.839Z,7.95
2023-03-02T00:35:39.983Z,7.18
2023-03-02T00:38:45.255Z,7.13
2023-03-02T00:41:50.899Z,7.20
2023-03-02T00:44:55.713Z,7.70
2023-03-02T00:47:59.340Z,7.40
2023-03-02T00:51:02.730Z,6.85
2023-03-02T00:54:10.347Z,8.43
2023-03-02T00:57:17.846Z,7.75
2023-03-02T01:00:23.375Z,7.53
2023-03-02T01:03:28.170Z,7.68
2023-03-02T01:06:31.915Z,8.02
2023-03-02T01:09:53.477Z,7.78
2023-03-02T01:13:04.255Z,7.55
2023-03-02T01:16:10.418Z,7.57
2023-03-02T01:19:16.664Z,7.63
2023-03-02T01:22:23.765Z,8.45
2023-03-02T01:25:35.931Z,6.70
2023-03-02T01:28:40.741Z,7.45
2023-03-02T01:31:48.917Z,7.63
2023-03-02T01:34:54.938Z,6.85
2023-03-02T01:38:00.600Z,7.20
2023-03-02T01:41:16.372Z,7.28
2023-03-02T01:44:43.449Z,6.97
2023-03-02T01:47:46.852Z,6.22
2023-03-02T01:50:56.798Z,6.43
2023-03-02T01:54:09.460Z,6.88
2023-03-02T01:57:16.383Z,7.25
2023-03-02T02:00:28.246Z,7.22
2023-03-02T02:03:33.804Z,7.43
2023-03-02T02:06:42.055Z,6.35
2023-03-02T02:09:49.046Z,6.10
2023-03-02T02:12:54.298Z,6.85
2023-03-02T02:15:57.982Z,6.50
2023-03-02T02:19:37.111Z,6.10
2023-03-02T02:23:01.022Z,5.80
2023-03-02T02:26:30.894Z,5.30
2023-03-02T02:29:39.475Z,5.72
2023-03-02T02:32:50.741Z,6.25
2023-03-02T02:36:09.203Z,6.53
2023-03-02T02:39:23.440Z,6.22
2023-03-02T02:42:35.625Z,6.13
2023-03-02T02:45:46.567Z,6.15
2023-03-02T02:48:59.217Z,6.50
2023-03-02T02:52:09.586Z,6.20
2023-03-02T02:55:22.493Z,6.18
2023-03-02T02:58:43.292Z,5.60
2023-03-02T03:01:50.590Z,5.68
2023-03-02T03:05:02.540Z,5.45
2023-03-02T03:08:11.436Z,5.45
2023-03-02T03:11:19.460Z,5.03
2023-03-02T03:14:31.560Z,5.18
2023-03-02T03:17:35.210Z,4.78
2023-03-02T03:20:38.967Z,4.60
2023-03-02T03:23:42.775Z,4.45
2023-03-02T03:26:46.849Z,5.45
2023-03-02T03:29:52.462Z,5.00
2023-03-02T03:32:56.037Z,5.00
2023-03-02T03:36:01.129Z,4.82
2023-03-02T03:39:06.823Z,4.80
2023-03-02T03:42:11.768Z,5.10
2023-03-02T03:45:16.804Z,4.82
2023-03-02T03:48:20.601Z,5.15
2023-03-02T03:51:24.698Z,4.90
2023-03-02T03:54:28.024Z,4.38
2023-03-02T03:57:31.802Z,4.80
2023-03-02T04:00:39.407Z,5.43
2023-03-02T04:03:43.098Z,5.20
2023-03-02T04:06:46.732Z,4.90
2023-03-02T04:09:50.105Z,4.75
2023-03-02T04:12:54.210Z,5.57
2023-03-02T04:15:59.190Z,4.85
2023-03-02T04:19:04.291Z,5.45
2023-03-02T04:22:07.927Z,4.90
2023-03-02T04:25:12.532Z,4.97
2023-03-02T04:28:17.579Z,5.82
2023-03-02T04:31:23.223Z,6.13
2023-03-02T04:34:28.712Z,6.45
2023-03-02T04:37:36.071Z,6.10
2023-03-02T04:40:39.574Z,6.88
2023-03-02T04:43:44.000Z,6.50
2023-03-02T04:46:50.215Z,6.57
2023-03-02T04:49:56.784Z,7.18
2023-03-02T04:53:00.961Z,7.75
2023-03-02T04:56:04.588Z,6.88
2023-03-02T04:59:08.760Z,6.72
2023-03-02T05:02:19.282Z,7.00
2023-03-02T05:05:25.932Z,6.35
2023-03-02T05:08:29.723Z,5.97
2023-03-02T05:11:33.358Z,5.63
2023-03-02T05:14:36.752Z,5.35
2023-03-02T05:17:42.481Z,5.45
2023-03-02T05:20:46.094Z,5.57
2023-03-02T05:23:50.290Z,6.18
2023-03-02T05:26:53.596Z,6.93
2023-03-02T05:29:57.172Z,5.75
2023-03-02T05:33:01.928Z,5.30
2023-03-02T05:36:05.876Z,4.93
2023-03-02T05:39:10.662Z,5.10
2023-03-02T05:42:16.330Z,4.40
2023-03-02T05:45:25.171Z,4.88
2023-03-02T05:48:31.313Z,4.93
2023-03-02T05:51:35.219Z,4.85
2023-03-02T05:54:39.871Z,5.10
2023-03-02T05:57:43.545Z,5.13
2023-03-02T06:00:49.949Z,5.68
2023-03-02T06:03:55.500Z,5.35
2023-03-02T06:06:58.868Z,5.53
2023-03-02T06:10:02.821Z,6.60
2023-03-02T06:16:13.526Z,6.17
2023-03-02T06:19:21.081Z,6.10
2023-03-02T06:22:24.568Z,6.57
2023-03-02T06:25:28.705Z,6.85
2023-03-02T06:28:37.775Z,6.55
2023-03-02T06:31:50.589Z,6.50
2023-03-02T06:34:57.273Z,6.32
2023-03-02T06:38:05.838Z,5.85
2023-03-02T06:41:09.364Z,6.05
2023-03-02T06:44:14.667Z,6.28
2023-03-02T06:47:18.913Z,5.70
2023-03-02T06:50:24.450Z,5.03
2023-03-02T06:53:29.710Z,4.63
2023-03-02T06:56:34.004Z,5.15
2023-03-02T06:59:37.816Z,5.10
2023-03-02T07:02:42.380Z,5.30
2023-03-02T07:05:49.434Z,4.97
2023-03-02T07:08:54.905Z,3.97
2023-03-02T07:11:58.582Z,3.97
2023-03-02T07:15:02.719Z,4.80
2023-03-02T07:18:06.661Z,4.30
2023-03-02T07:21:12.581Z,4.45
2023-03-02T07:24:16.173Z,4.13
2023-03-02T07:27:23.052Z,3.97
2023-03-02T07:30:27.450Z,4.38
2023-03-02T07:33:30.884Z,4.07
2023-03-02T07:36:36.855Z,4.03
2023-03-02T07:39:40.340Z,4.13
2023-03-02T07:42:44.346Z,4.05
2023-03-02T07:48:52.194Z,3.53
2023-03-02T07:51:57.421Z,3.65
2023-03-02T07:55:01.820Z,3.17
2023-03-02T07:58:05.096Z,3.58
2023-03-02T08:01:13.868Z,3.50
2023-03-02T08:04:17.614Z,3.35
2023-03-02T08:07:22.704Z,3.17
2023-03-02T08:10:26.313Z,3.45
2023-03-02T08:13:30.221Z,4.00
2023-03-02T08:16:34.991Z,3.72
2023-03-02T08:19:38.584Z,3.55
2023-03-02T08:22:44.210Z,3.55
2023-03-02T08:25:48.861Z,4.30
2023-03-02T08:28:53.790Z,4.40
2023-03-02T08:31:58.995Z,3.65
2023-03-02T08:35:03.776Z,4.70
2023-03-02T08:38:11.562Z,4.20
2023-03-02T08:41:17.964Z,5.10
2023-03-02T08:44:25.832Z,4.40
2023-03-02T08:47:30.272Z,4.63
2023-03-02T08:50:33.768Z,4.40
2023-03-02T08:53:43.024Z,4.82
2023-03-02T08:56:50.582Z,4.47
2023-03-02T08:59:54.171Z,4.68
2023-03-02T09:02:57.586Z,4.18
2023-03-02T09:06:01.506Z,4.47
2023-03-02T09:09:07.241Z,5.03
2023-03-02T09:12:12.211Z,7.80
2023-03-02T09:15:17.862Z,5.05
2023-03-02T09:18:21.780Z,5.00
2023-03-02T09:21:26.589Z,4.70
2023-03-02T09:24:31.622Z,4.88
2023-03-02T09:27:37.347Z,4.70
2023-03-02T09:30:41.720Z,4.35
2023-03-02T09:33:46.015Z,4.40
2023-03-02T09:39:59.385Z,3.88
2023-03-02T09:43:23.758Z,4.00
2023-03-02T09:46:35.577Z,4.07
2023-03-02T09:50:02.643Z,4.07
2023-03-02T09:53:34.051Z,4.78
2023-03-02T09:56:45.550Z,4.70
2023-03-02T09:59:59.876Z,4.05
2023-03-02T10:03:17.332Z,4.10
2023-03-02T10:06:28.179Z,4.15
2023-03-02T10:09:33.256Z,3.38
2023-03-02T10:13:22.009Z,3.38
2023-03-02T10:16:36.485Z,3.35
2023-03-02T10:22:55.437Z,3.05
2023-03-02T10:26:11.838Z,2.42
2023-03-02T10:29:32.168Z,2.15
2023-03-02T10:32:41.734Z,2.30
2023-03-02T10:35:49.654Z,1.90
2023-03-02T10:38:55.874Z,4.13
2023-03-02T10:42:05.044Z,2.45
2023-03-02T10:45:26.136Z,1.80
2023-03-02T10:48:30.209Z,1.70
2023-03-02T10:54:41.223Z,1.10
2023-03-02T10:57:58.569Z,1.00
2023-03-02T11:01:07.809Z,1.63
2023-03-02T11:04:21.303Z,1.67
2023-03-02T11:07:29.038Z,1.03
2023-03-02T11:10:36.873Z,1.17
2023-03-02T11:13:41.242Z,1.20
2023-03-02T11:16:45.969Z,1.23
2023-03-02T11:19:51.208Z,1.45
2023-03-02T11:23:12.661Z,0.82
2023-03-02T11:26:24.345Z,1.10
2023-03-02T11:29:35.617Z,1.33
2023-03-02T11:32:54.716Z,1.00
2023-03-02T11:36:09.698Z,1.67
2023-03-02T11:39:24.723Z,1.10
2023-03-02T11:42:33.258Z,1.33
2023-03-02T11:45:43.188Z,1.15
2023-03-02T11:48:53.547Z,1.20
2023-03-02T11:52:00.878Z,0.95
2023-03-02T11:55:18.005Z,1.50
2023-03-02T11:58:26.484Z,1.45
2023-03-02T12:01:30.803Z,1.40
2023-03-02T12:04:38.903Z,1.35
2023-03-02T12:07:44.599Z,1.80
2023-03-02T12:11:06.713Z,1.77
2023-03-02T12:14:29.949Z,1.90
2023-03-02T12:17:35.547Z,1.30
2023-03-02T12:20:43.143Z,1.35
2023-03-02T12:24:03.887Z,1.58
2023-03-02T12:27:25.611Z,1.65
2023-03-02T12:30:32.024Z,1.30
2023-03-02T12:33:47.716Z,2.00
2023-03-02T12:36:57.018Z,1.65
2023-03-02T12:40:41.040Z,1.30
2023-03-02T12:43:50.687Z,1.27
2023-03-02T12:46:57.100Z,1.40
2023-03-02T12:50:05.362Z,1.20
2023-03-02T12:53:20.170Z,1.13
2023-03-02T12:56:25.352Z,1.30
2023-03-02T12:59:32.227Z,1.00
2023-03-02T13:02:37.491Z,0.82
2023-03-02T13:05:44.174Z,1.23
2023-03-02T13:08:55.340Z,1.05
2023-03-02T13:12:02.123Z,1.25
2023-03-02T13:15:19.053Z,1.20
2023-03-02T13:18:28.863Z,0.73
2023-03-02T13:21:34.721Z,1.10
2023-03-02T13:24:50.306Z,0.93
2023-03-02T13:28:23.482Z,0.80
2023-03-02T13:31:28.926Z,0.75
2023-03-02T13:34:33.067Z,0.77
2023-03-02T13:37:40.774Z,0.88
2023-03-02T13:40:52.360Z,0.88
2023-03-02T13:43:56.696Z,1.20
2023-03-02T13:47:02.031Z,0.93
2023-03-02T13:50:18.179Z,0.82
2023-03-02T13:53:25.399Z,0.80
2023-03-02T13:56:40.087Z,0.75
2023-03-02T13:59:49.684Z,0.75
2023-03-02T14:02:55.588Z,0.90
2023-03-02T14:06:01.774Z,0.70
2023-03-02T14:09:08.548Z,1.30
2023-03-02T14:12:27.082Z,0.90
2023-03-02T14:15:38.765Z,0.93
2023-03-02T14:18:46.165Z,1.05
2023-03-02T14:21:51.182Z,0.73
2023-03-02T14:24:57.175Z,0.95
2023-03-02T14:28:02.594Z,0.80
2023-03-02T14:31:06.487Z,0.80
2023-03-02T14:34:15.242Z,0.65
2023-03-02T14:37:41.376Z,0.77
2023-03-02T14:40:46.339Z,1.00
2023-03-02T14:43:57.475Z,1.10
2023-03-02T14:47:01.203Z,0.73
2023-03-02T14:50:07.376Z,0.90
2023-03-02T14:53:19.285Z,0.85
2023-03-02T14:56:25.823Z,0.95
2023-03-02T14:59:31.154Z,0.70
2023-03-02T15:02:38.121Z,1.23
2023-03-02T15:05:51.729Z,0.68
2023-03-02T15:09:09.116Z,0.80
2023-03-02T15:12:13.465Z,0.70
2023-03-02T15:15:19.479Z,0.80
2023-03-02T15:18:27.175Z,0.75
2023-03-02T15:21:31.253Z,0.80
2023-03-02T15:24:37.682Z,0.77
2023-03-02T15:27:42.815Z,0.90
2023-03-02T15:30:52.632Z,0.90
2023-03-02T15:33:57.430Z,1.00
2023-03-02T15:37:01.310Z,0.77
2023-03-02T15:40:06.363Z,0.90
2023-03-02T15:43:11.474Z,0.88
2023-03-02T15:46:19.746Z,0.90
2023-03-02T15:49:30.053Z,0.68
2023-03-02T15:52:34.631Z,1.05
2023-03-02T15:55:42.909Z,0.77
2023-03-02T15:58:51.120Z,0.82
2023-03-02T16:01:59.284Z,0.73
2023-03-02T16:05:06.833Z,0.95
2023-03-02T16:08:11.590Z,0.85
2023-03-02T16:11:23.832Z,0.85
2023-03-02T16:14:27.683Z,0.70
2023-03-02T16:20:51.092Z,1.27
2023-03-02T16:24:03.944Z,0.77
2023-03-02T16:27:11.382Z,0.80
2023-03-02T16:30:26.070Z,1.00
2023-03-02T16:33:37.369Z,0.93
2023-03-02T16:36:43.816Z,1.13
2023-03-02T16:39:51.698Z,1.25
2023-03-02T16:42:59.706Z,1.17
2023-03-02T16:46:03.744Z,2.22
2023-03-02T16:49:08.853Z,1.33
2023-03-02T16:52:17.599Z,1.30
2023-03-02T16:55:24.778Z,1.30
2023-03-02T16:58:30.006Z,1.00
2023-03-02T17:01:52.084Z,1.25
2023-03-02T17:04:59.214Z,1.45
2023-03-02T17:08:07.682Z,0.85
2023-03-02T17:11:28.869Z,0.95
2023-03-02T17:14:32.708Z,0.88
2023-03-02T17:17:54.413Z,1.08
2023-03-02T17:21:19.027Z,1.27
2023-03-02T17:24:24.050Z,1.02
2023-03-02T17:27:30.093Z,0.90
2023-03-02T17:33:41.120Z,0.93
2023-03-02T17:36:48.371Z,1.08
2023-03-02T17:39:55.368Z,1.00
2023-03-02T17:43:03.178Z,1.20
2023-03-02T17:46:15.246Z,1.42
2023-03-02T17:49:33.283Z,1.48
2023-03-02T17:52:46.641Z,1.40
2023-03-02T17:55:52.993Z,1.27
2023-03-02T17:59:02.936Z,1.55
2023-03-02T18:02:06.478Z,1.52
2023-03-02T18:05:14.364Z,1.67
2023-03-02T18:08:20.303Z,2.03
2023-03-02T18:11:26.300Z,2.10
2023-03-02T18:14:30.704Z,2.35
2023-03-02T18:17:34.766Z,3.20
2023-03-02T18:20:39.863Z,3.30
2023-03-02T18:23:49.343Z,2.70
2023-03-02T18:26:53.233Z,2.50
2023-03-02T18:30:04.532Z,3.17
2023-03-02T18:33:09.153Z,2.72
2023-03-02T18:36:14.466Z,3.38
2023-03-02T18:39:22.293Z,2.67
2023-03-02T18:42:26.415Z,2.70
2023-03-02T18:45:35.552Z,2.78
2023-03-02T18:48:39.734Z,2.53
2023-03-02T18:54:49.818Z,2.55
2023-03-02T18:57:55.059Z,3.00
2023-03-02T19:01:00.267Z,2.55
2023-03-02T19:04:04.950Z,2.63
2023-03-02T19:07:10.180Z,3.10
2023-03-02T19:10:17.358Z,2.90
2023-03-02T19:13:22.089Z,2.78
2023-03-02T19:16:38.435Z,2.63
2023-03-02T19:19:47.932Z,2.92
2023-03-02T19:23:00.477Z,2.80
2023-03-02T19:26:07.563Z,3.22
2023-03-02T19:29:14.176Z,3.65
2023-03-02T19:32:23.700Z,3.90
2023-03-02T19:35:31.453Z,3.67
2023-03-02T19:38:38.152Z,3.85
2023-03-02T19:41:42.946Z,3.17
2023-03-02T19:44:46.465Z,2.67
2023-03-02T19:47:51.632Z,3.90
2023-03-02T19:54:04.099Z,3.55
2023-03-02T19:57:10.711Z,3.25
2023-03-02T20:00:20.689Z,2.55
2023-03-02T20:03:26.232Z,2.65
2023-03-02T20:06:33.498Z,3.00
2023-03-02T20:09:40.407Z,3.40
2023-03-02T20:12:45.393Z,3.08
2023-03-02T20:15:58.890Z,3.20
2023-03-02T20:19:09.651Z,3.40
2023-03-02T20:22:33.219Z,3.47
2023-03-02T20:25:48.409Z,3.25
2023-03-02T20:29:00.576Z,3.40
2023-03-02T20:32:11.212Z,3.75
2023-03-02T20:35:16.397Z,3.45
2023-03-02T20:38:58.931Z,3.38
2023-03-02T20:42:09.860Z,3.63
2023-03-02T20:45:17.614Z,3.10
2023-03-02T20:48:26.340Z,3.10
2023-03-02T20:51:33.211Z,4.38
2023-03-02T20:54:54.852Z,3.72
2023-03-02T20:58:02.649Z,4.30
2023-03-02T21:01:10.328Z,3.42
2023-03-02T21:04:18.319Z,3.78
2023-03-02T21:07:23.979Z,3.35
2023-03-02T21:10:31.071Z,3.53
2023-03-02T21:13:34.688Z,3.13
2023-03-02T21:16:44.244Z,3.10
2023-03-02T21:19:47.908Z,4.10
2023-03-02T21:23:30.506Z,3.60
2023-03-02T21:26:37.843Z,3.33
2023-03-02T21:29:42.690Z,4.50
2023-03-02T21:32:48.292Z,4.40
2023-03-02T21:35:52.112Z,3.42
2023-03-02T21:38:57.588Z,3.97
2023-03-02T21:42:01.545Z,4.15
2023-03-02T21:45:05.496Z,4.10
2023-03-02T21:51:15.439Z,3.85
2023-03-02T21:54:21.331Z,3.85
2023-03-02T21:57:25.833Z,3.80
2023-03-02T22:00:32.920Z,3.63
2023-03-02T22:03:40.119Z,3.65
2023-03-02T22:06:43.612Z,5.20
2023-03-02T22:09:47.464Z,6.18
2023-03-02T22:12:59.020Z,5.13
2023-03-02T22:16:15.367Z,3.83
2023-03-02T22:19:30.781Z,4.03
2023-03-02T22:22:34.740Z,4.32
2023-03-02T22:25:45.385Z,4.30
2023-03-02T22:28:49.395Z,4.53
2023-03-02T22:35:09.101Z,4.65
2023-03-02T22:38:24.467Z,5.10
2023-03-02T22:41:29.110Z,5.20
2023-03-02T22:44:32.509Z,4.65
2023-03-02T22:47:35.992Z,4.68
2023-03-02T22:50:41.434Z,4.72
2023-03-02T22:53:52.743Z,4.65
2023-03-02T22:56:57.193Z,5.82
2023-03-02T23:00:35.937Z,4.82
2023-03-02T23:03:43.669Z,8.57
2023-03-02T23:06:52.603Z,6.07
2023-03-02T23:09:56.617Z,6.32
2023-03-02T23:16:14.424Z,4.68
2023-03-02T23:19:19.189Z,5.65
2023-03-02T23:22:28.443Z,5.10
2023-03-02T23:25:31.951Z,4.80
2023-03-02T23:28:35.432Z,4.72
2023-03-02T23:31:39.329Z,5.35
2023-03-02T23:34:44.694Z,5.75
2023-03-02T23:37:49.944Z,5.30
2023-03-02T23:40:54.377Z,4.80
2023-03-02T23:43:58.796Z,5.20
2023-03-02T23:47:03.560Z,5.45
2023-03-02T23:50:08.887Z,6.50
2023-03-02T23:53:14.036Z,7.13
2023-03-02T23:56:17.720Z,5.38
2023-03-02T23:59:21.847Z,5.95
